createdAt,value
2023-02-28T00:01:26.929Z,0.16
2023-02-28T00:03:53.651Z,0.19
2023-02-28T00:06:21.033Z,0.20
2023-02-28T00:08:47.648Z,0.21
2023-02-28T00:11:15.737Z,0.22
2023-02-28T00:13:47.240Z,0.22
2023-02-28T00:16:19.916Z,0.24
2023-02-28T00:18:48.442Z,0.32
2023-02-28T00:21:16.306Z,0.35
2023-02-28T00:23:42.969Z,0.34
2023-02-28T00:26:09.559Z,0.32
2023-02-28T00:28:36.447Z,0.34
2023-02-28T00:31:03.072Z,0.37
2023-02-28T00:33:30.113Z,0.38
2023-02-28T00:36:09.206Z,0.42
2023-02-28T00:38:36.536Z,0.45
2023-02-28T00:41:06.126Z,0.46
2023-02-28T00:43:38.439Z,0.47
2023-02-28T00:46:05.622Z,0.49
2023-02-28T00:48:32.639Z,0.50
2023-02-28T00:50:59.357Z,0.50
2023-02-28T00:53:26.335Z,0.49
2023-02-28T00:55:53.326Z,0.49
2023-02-28T00:58:19.987Z,0.49
2023-02-28T01:00:50.115Z,0.49
2023-02-28T01:03:20.927Z,0.51
2023-02-28T01:05:48.317Z,0.51
2023-02-28T01:08:15.413Z,0.54
2023-02-28T01:10:42.639Z,0.55
2023-02-28T01:13:09.547Z,0.53
2023-02-28T01:15:36.137Z,0.51
2023-02-28T01:18:02.740Z,0.52
2023-02-28T01:20:29.282Z,0.53
2023-02-28T01:22:55.876Z,0.53
2023-02-28T01:25:22.617Z,0.52
2023-02-28T01:27:49.269Z,0.50
2023-02-28T01:30:16.005Z,0.48
2023-02-28T01:32:42.557Z,0.51
2023-02-28T01:35:09.434Z,0.55
2023-02-28T01:37:36.012Z,0.56
2023-02-28T01:40:03.397Z,0.56
2023-02-28T01:42:29.985Z,0.57
2023-02-28T01:45:32.703Z,0.58
2023-02-28T01:48:03.204Z,0.60
2023-02-28T01:50:34.662Z,0.59
2023-02-28T01:53:05.357Z,0.60
2023-02-28T01:55:33.508Z,0.61
2023-02-28T01:58:03.663Z,0.62
2023-02-28T02:00:31.316Z,0.62
2023-02-28T02:03:02.378Z,0.62
2023-02-28T02:05:35.295Z,0.63
2023-02-28T02:08:08.924Z,0.63
2023-02-28T02:10:57.092Z,0.66
2023-02-28T02:13:38.782Z,0.69
2023-02-28T02:16:08.322Z,0.73
2023-02-28T02:18:50.976Z,0.75
2023-02-28T02:21:38.816Z,0.74
2023-02-28T02:24:39.548Z,0.72
2023-02-28T02:27:19.467Z,0.76
2023-02-28T02:30:09.723Z,0.72
2023-02-28T02:32:48.498Z,0.69
2023-02-28T02:35:25.226Z,0.68
2023-02-28T02:38:00.963Z,0.70
2023-02-28T02:40:44.624Z,0.70
2023-02-28T02:43:40.074Z,0.69
2023-02-28T02:46:29.336Z,0.67
2023-02-28T02:48:58.434Z,0.67
2023-02-28T02:51:25.986Z,0.70
2023-02-28T02:54:06.850Z,0.72
2023-02-28T02:56:35.619Z,0.76
2023-02-28T02:59:05.350Z,0.78
2023-02-28T03:01:35.680Z,0.76
2023-02-28T03:04:08.782Z,0.78
2023-02-28T03:06:36.385Z,0.78
2023-02-28T03:09:04.509Z,0.79
2023-02-28T03:11:32.495Z,0.78
2023-02-28T03:14:20.301Z,0.78
2023-02-28T03:16:55.662Z,0.80
2023-02-28T03:19:48.470Z,0.80
2023-02-28T03:22:55.842Z,0.77
2023-02-28T03:25:25.258Z,0.73
2023-02-28T03:28:14.819Z,0.74
2023-02-28T03:30:59.828Z,0.76
2023-02-28T03:33:35.936Z,0.73
2023-02-28T03:36:14.248Z,0.72
2023-02-28T03:38:46.985Z,0.71
2023-02-28T03:41:26.796Z,0.71
2023-02-28T03:44:25.366Z,0.69
2023-02-28T03:47:01.204Z,0.69
2023-02-28T03:50:00.215Z,0.69
2023-02-28T03:52:32.216Z,0.70
2023-02-28T03:55:08.038Z,0.68
2023-02-28T03:57:45.227Z,0.69
2023-02-28T04:00:22.120Z,0.70
2023-02-28T04:02:53.625Z,0.70
2023-02-28T04:05:23.970Z,0.71
2023-02-28T04:07:50.708Z,0.74
2023-02-28T04:10:17.784Z,0.73
2023-02-28T04:12:44.359Z,0.70
2023-02-28T04:15:12.280Z,0.69
2023-02-28T04:17:39.287Z,0.71
2023-02-28T04:20:10.511Z,0.71
2023-02-28T04:22:38.260Z,0.73
2023-02-28T04:25:06.693Z,0.72
2023-02-28T04:27:33.534Z,0.71
2023-02-28T04:30:00.295Z,0.72
2023-02-28T04:32:27.120Z,0.71
2023-02-28T04:34:53.871Z,0.72
2023-02-28T04:37:20.737Z,0.76
2023-02-28T04:39:47.349Z,0.74
2023-02-28T04:42:14.673Z,0.75
2023-02-28T04:44:41.276Z,0.70
2023-02-28T04:47:08.077Z,0.68
2023-02-28T04:49:34.679Z,0.66
2023-02-28T04:52:01.245Z,0.66
2023-02-28T04:54:29.330Z,0.64
2023-02-28T04:56:55.948Z,0.64
2023-02-28T04:59:22.544Z,0.67
2023-02-28T05:01:50.104Z,0.67
2023-02-28T05:04:18.150Z,0.66
2023-02-28T05:06:45.165Z,0.67
2023-02-28T05:09:14.590Z,0.64
2023-02-28T05:11:41.898Z,0.66
2023-02-28T05:14:12.501Z,0.68
2023-02-28T05:16:39.304Z,0.69
2023-02-28T05:19:06.129Z,0.71
2023-02-28T05:21:50.350Z,0.69
2023-02-28T05:24:23.505Z,0.70
2023-02-28T05:26:52.963Z,0.72
2023-02-28T05:29:20.325Z,0.74
2023-02-28T05:31:47.465Z,0.75
2023-02-28T05:34:16.530Z,0.75
2023-02-28T05:36:43.378Z,0.73
2023-02-28T05:39:14.212Z,0.73
2023-02-28T05:41:44.620Z,0.72
2023-02-28T05:44:12.019Z,0.74
2023-02-28T05:46:39.464Z,0.75
2023-02-28T05:49:06.425Z,0.73
2023-02-28T05:51:33.094Z,0.73
2023-02-28T05:54:01.550Z,0.72
2023-02-28T05:56:28.830Z,0.75
2023-02-28T05:58:55.425Z,0.76
2023-02-28T06:01:27.705Z,0.76
2023-02-28T06:03:54.399Z,0.77
2023-02-28T06:06:21.034Z,0.82
2023-02-28T06:08:47.872Z,0.85
2023-02-28T06:11:14.566Z,0.87
2023-02-28T06:13:41.705Z,0.90
2023-02-28T06:16:10.217Z,0.91
2023-02-28T06:18:37.017Z,0.95
2023-02-28T06:21:04.153Z,1.02
2023-02-28T06:23:30.941Z,1.08
2023-02-28T06:26:00.584Z,1.13
2023-02-28T06:28:27.178Z,1.16
2023-02-28T06:30:53.771Z,1.20
2023-02-28T06:33:20.384Z,1.21
2023-02-28T06:35:53.912Z,1.25
2023-02-28T06:38:20.490Z,1.27
2023-02-28T06:40:54.859Z,1.34
2023-02-28T06:43:21.837Z,1.39
2023-02-28T06:45:48.448Z,1.41
2023-02-28T06:48:15.011Z,1.45
2023-02-28T06:50:41.686Z,1.45
2023-02-28T06:53:08.310Z,1.50
2023-02-28T06:55:34.913Z,1.54
2023-02-28T06:58:01.457Z,1.59
2023-02-28T07:00:28.002Z,1.63
2023-02-28T07:02:56.060Z,1.68
2023-02-28T07:05:22.743Z,1.69
2023-02-28T07:07:49.637Z,1.73
2023-02-28T07:10:20.152Z,1.80
2023-02-28T07:12:46.952Z,1.88
2023-02-28T07:15:13.618Z,1.95
2023-02-28T07:17:40.197Z,2.05
2023-02-28T07:20:07.392Z,2.12
2023-02-28T07:22:34.009Z,2.19
2023-02-28T07:25:00.593Z,2.24
2023-02-28T07:27:27.326Z,2.29
2023-02-28T07:29:55.671Z,2.31
2023-02-28T07:32:22.388Z,2.38
2023-02-28T07:34:49.511Z,2.43
2023-02-28T07:37:16.206Z,2.49
2023-02-28T07:39:43.465Z,2.54
2023-02-28T07:42:12.773Z,2.61
2023-02-28T07:44:41.683Z,2.67
2023-02-28T07:47:09.663Z,2.78
2023-02-28T07:49:39.992Z,2.93
2023-02-28T07:52:08.054Z,3.04
2023-02-28T07:54:35.152Z,3.13
2023-02-28T07:57:01.732Z,3.20
2023-02-28T07:59:29.998Z,3.22
2023-02-28T08:01:58.928Z,3.24
2023-02-28T08:04:25.680Z,3.29
2023-02-28T08:06:54.966Z,3.35
2023-02-28T08:09:21.632Z,3.44
2023-02-28T08:11:48.284Z,3.50
2023-02-28T08:14:14.881Z,3.61
2023-02-28T08:16:41.477Z,3.75
2023-02-28T08:19:08.023Z,3.91
2023-02-28T08:21:34.602Z,4.11
2023-02-28T08:24:01.527Z,4.31
2023-02-28T08:26:28.063Z,4.55
2023-02-28T08:28:56.184Z,4.74
2023-02-28T08:31:24.091Z,4.93
2023-02-28T08:33:52.875Z,5.16
2023-02-28T08:36:20.438Z,5.33
2023-02-28T08:38:47.106Z,5.53
2023-02-28T08:41:14.178Z,5.67
2023-02-28T08:43:41.628Z,5.85
2023-02-28T08:46:08.956Z,5.97
2023-02-28T08:48:39.029Z,6.14
2023-02-28T08:51:10.049Z,6.26
2023-02-28T08:53:41.242Z,6.20
2023-02-28T08:56:14.060Z,6.26
2023-02-28T08:58:41.518Z,6.29
2023-02-28T09:01:10.652Z,6.33
2023-02-28T09:03:37.296Z,6.29
2023-02-28T09:06:04.379Z,6.34
2023-02-28T09:08:32.294Z,6.39
2023-02-28T09:11:02.389Z,6.53
2023-02-28T09:13:31.034Z,6.72
2023-02-28T09:16:03.641Z,6.88
2023-02-28T09:18:30.613Z,6.97
2023-02-28T09:20:58.708Z,7.06
2023-02-28T09:23:25.828Z,7.09
2023-02-28T09:25:54.916Z,7.15
2023-02-28T09:28:22.631Z,7.22
2023-02-28T09:30:52.590Z,7.18
2023-02-28T09:33:22.920Z,7.22
2023-02-28T09:35:50.633Z,7.35
2023-02-28T09:38:18.838Z,7.38
2023-02-28T09:40:56.539Z,7.39
2023-02-28T09:43:26.632Z,7.46
2023-02-28T09:46:03.520Z,7.54
2023-02-28T09:48:38.021Z,7.61
2023-02-28T09:51:24.436Z,7.60
2023-02-28T09:53:56.751Z,7.63
2023-02-28T09:56:43.424Z,7.77
2023-02-28T09:59:31.480Z,7.84
2023-02-28T10:02:11.576Z,7.87
2023-02-28T10:04:38.161Z,7.92
2023-02-28T10:07:33.112Z,7.91
2023-02-28T10:10:06.067Z,7.97
2023-02-28T10:12:34.345Z,7.96
2023-02-28T10:15:05.480Z,7.99
2023-02-28T10:20:32.330Z,8.32
2023-02-28T10:23:24.886Z,8.66
2023-02-28T10:25:57.956Z,8.82
2023-02-28T10:28:26.326Z,9.05
2023-02-28T10:30:54.852Z,9.20
2023-02-28T10:33:42.728Z,9.38
2023-02-28T10:36:15.179Z,9.60
2023-02-28T10:38:42.134Z,9.73
2023-02-28T10:41:16.251Z,9.81
2023-02-28T10:43:45.948Z,9.89
2023-02-28T10:46:24.081Z,9.91
2023-02-28T10:49:06.885Z,9.75
2023-02-28T10:51:41.552Z,9.65
2023-02-28T10:54:16.676Z,9.53
2023-02-28T10:56:43.358Z,9.49
2023-02-28T10:59:10.060Z,9.36
2023-02-28T11:01:39.818Z,9.22
2023-02-28T11:04:37.658Z,9.17
2023-02-28T11:07:27.539Z,9.26
2023-02-28T11:09:56.750Z,9.37
2023-02-28T11:12:50.845Z,9.61
2023-02-28T11:15:27.141Z,9.69
2023-02-28T11:18:20.385Z,9.82
2023-02-28T11:20:51.995Z,10.06
2023-02-28T11:23:21.114Z,10.13
2023-02-28T11:25:52.625Z,10.41
2023-02-28T11:28:33.583Z,10.56
2023-02-28T11:31:15.002Z,10.37
2023-02-28T11:33:45.869Z,10.14
2023-02-28T11:36:15.166Z,9.96
2023-02-28T11:38:43.157Z,9.83
2023-02-28T11:41:28.710Z,9.64
2023-02-28T11:44:33.759Z,9.53
2023-02-28T11:47:09.130Z,9.75
2023-02-28T11:49:51.364Z,9.89
2023-02-28T11:52:26.966Z,10.01
2023-02-28T11:55:20.427Z,10.13
2023-02-28T11:57:52.813Z,10.19
2023-02-28T12:00:37.445Z,10.19
2023-02-28T12:03:29.252Z,10.15
2023-02-28T12:06:28.727Z,10.45
2023-02-28T12:09:10.608Z,10.92
2023-02-28T12:11:49.288Z,11.20
2023-02-28T12:14:48.262Z,11.50
2023-02-28T12:17:44.378Z,11.79
2023-02-28T12:20:55.944Z,12.15
2023-02-28T12:23:44.398Z,12.53
2023-02-28T12:26:25.539Z,12.90
2023-02-28T12:28:59.184Z,13.21
2023-02-28T12:31:32.024Z,13.25
2023-02-28T12:34:04.836Z,13.72
2023-02-28T12:36:31.417Z,14.27
2023-02-28T12:39:04.112Z,14.39
2023-02-28T12:41:40.135Z,14.66
2023-02-28T12:44:15.469Z,14.91
2023-02-28T12:46:52.016Z,14.83
2023-02-28T12:49:55.642Z,14.99
2023-02-28T12:52:44.009Z,14.88
2023-02-28T12:55:26.200Z,15.08
2023-02-28T12:58:21.784Z,15.32
2023-02-28T13:01:03.556Z,15.49
2023-02-28T13:03:45.022Z,15.34
2023-02-28T13:06:21.218Z,15.39
2023-02-28T13:09:09.791Z,15.34
2023-02-28T13:11:43.345Z,15.20
2023-02-28T13:14:34.137Z,15.35
2023-02-28T13:17:12.708Z,14.82
2023-02-28T13:20:01.854Z,14.70
2023-02-28T13:22:50.244Z,15.24
2023-02-28T13:25:23.081Z,15.69
2023-02-28T13:27:57.665Z,15.66
2023-02-28T13:30:52.748Z,14.74
2023-02-28T13:33:24.717Z,14.41
2023-02-28T13:36:09.705Z,14.17
2023-02-28T13:38:39.834Z,13.74
2023-02-28T13:41:37.142Z,13.59
2023-02-28T13:44:15.582Z,13.52
2023-02-28T13:46:48.306Z,13.24
2023-02-28T13:49:26.880Z,12.77
2023-02-28T13:52:03.443Z,12.33
2023-02-28T13:55:09.598Z,11.90
2023-02-28T13:58:13.957Z,11.59
2023-02-28T14:01:22.223Z,11.47
2023-02-28T14:04:16.140Z,11.25
2023-02-28T14:06:52.963Z,10.98
2023-02-28T14:09:32.311Z,10.86
2023-02-28T14:12:37.480Z,10.70
2023-02-28T14:15:06.495Z,10.58
2023-02-28T14:17:33.708Z,10.54
2023-02-28T14:20:00.862Z,10.37
2023-02-28T14:22:30.400Z,10.13
2023-02-28T14:25:19.688Z,9.97
2023-02-28T14:28:13.316Z,9.94
2023-02-28T14:30:52.088Z,10.02
2023-02-28T14:33:30.660Z,9.93
2023-02-28T14:36:02.947Z,9.86
2023-02-28T14:38:36.152Z,9.71
2023-02-28T14:41:07.937Z,9.56
2023-02-28T14:43:34.515Z,9.61
2023-02-28T14:46:04.293Z,9.61
2023-02-28T14:48:31.396Z,9.60
2023-02-28T14:51:00.219Z,9.56
2023-02-28T14:53:30.471Z,9.33
2023-02-28T14:55:57.766Z,9.18
2023-02-28T14:58:35.279Z,9.02
2023-02-28T15:01:04.388Z,8.91
2023-02-28T15:03:39.350Z,8.82
2023-02-28T15:06:13.289Z,8.73
2023-02-28T15:08:39.845Z,8.60
2023-02-28T15:11:13.648Z,8.56
2023-02-28T15:13:46.202Z,8.55
2023-02-28T15:16:23.129Z,8.42
2023-02-28T15:18:53.644Z,8.30
2023-02-28T15:21:27.523Z,8.26
2023-02-28T15:24:24.799Z,8.23
2023-02-28T15:26:56.196Z,8.12
2023-02-28T15:29:25.721Z,8.09
2023-02-28T15:32:02.985Z,7.99
2023-02-28T15:34:42.174Z,7.96
2023-02-28T15:37:42.265Z,7.72
2023-02-28T15:40:17.256Z,7.63
2023-02-28T15:42:58.667Z,7.61
2023-02-28T15:45:57.846Z,7.59
2023-02-28T15:48:36.970Z,7.52
2023-02-28T15:51:06.624Z,7.50
2023-02-28T15:53:55.594Z,7.42
2023-02-28T15:56:29.958Z,7.24
2023-02-28T15:59:01.623Z,7.18
2023-02-28T16:01:31.064Z,7.18
2023-02-28T16:04:04.274Z,7.15
2023-02-28T16:06:37.497Z,7.09
2023-02-28T16:09:06.064Z,7.01
2023-02-28T16:11:36.153Z,6.96
2023-02-28T16:14:04.259Z,6.90
2023-02-28T16:16:32.496Z,6.83
2023-02-28T16:18:59.157Z,6.78
2023-02-28T16:21:26.799Z,6.77
2023-02-28T16:23:53.408Z,6.68
2023-02-28T16:26:24.042Z,6.66
2023-02-28T16:28:52.037Z,6.56
2023-02-28T16:31:19.064Z,6.46
2023-02-28T16:33:46.670Z,6.40
2023-02-28T16:36:21.985Z,6.37
2023-02-28T16:38:48.925Z,6.36
2023-02-28T16:41:21.875Z,6.29
2023-02-28T16:43:51.022Z,6.25
2023-02-28T16:46:18.608Z,6.24
2023-02-28T16:48:46.328Z,6.19
2023-02-28T16:51:14.768Z,6.14
2023-02-28T16:53:41.428Z,6.10
2023-02-28T16:56:16.790Z,6.08
2023-02-28T16:58:43.429Z,6.02
2023-02-28T17:01:10.103Z,5.99
2023-02-28T17:03:37.834Z,5.96
2023-02-28T17:06:05.392Z,5.96
2023-02-28T17:08:33.193Z,5.91
2023-02-28T17:11:00.339Z,5.92
2023-02-28T17:13:26.983Z,5.91
2023-02-28T17:15:53.649Z,5.90
2023-02-28T17:18:22.114Z,5.91
2023-02-28T17:20:49.415Z,5.89
2023-02-28T17:23:16.956Z,5.83
2023-02-28T17:25:56.322Z,5.82
2023-02-28T17:28:24.495Z,5.77
2023-02-28T17:30:51.123Z,5.77
2023-02-28T17:33:17.803Z,5.73
2023-02-28T17:35:44.401Z,5.70
2023-02-28T17:38:18.019Z,5.65
2023-02-28T17:40:45.335Z,5.64
2023-02-28T17:43:11.999Z,5.65
2023-02-28T17:45:38.692Z,5.62
2023-02-28T17:48:05.926Z,5.60
2023-02-28T17:50:32.992Z,5.58
2023-02-28T17:52:59.650Z,5.55
2023-02-28T17:55:26.286Z,5.53
2023-02-28T17:57:52.967Z,5.50
2023-02-28T18:00:20.077Z,5.45
2023-02-28T18:02:46.744Z,5.41
2023-02-28T18:05:13.508Z,5.40
2023-02-28T18:07:40.841Z,5.40
2023-02-28T18:10:14.265Z,5.37
2023-02-28T18:12:40.850Z,5.32
2023-02-28T18:15:07.753Z,5.27
2023-02-28T18:17:34.396Z,5.26
2023-02-28T18:20:00.916Z,5.24
2023-02-28T18:22:27.505Z,5.26
2023-02-28T18:24:54.026Z,5.28
2023-02-28T18:27:20.679Z,5.28
2023-02-28T18:29:47.306Z,5.26
2023-02-28T18:32:13.956Z,5.26
2023-02-28T18:34:40.657Z,5.23
2023-02-28T18:37:07.406Z,5.22
2023-02-28T18:39:33.986Z,5.22
2023-02-28T18:42:00.564Z,5.22
2023-02-28T18:44:27.191Z,5.21
2023-02-28T18:46:53.832Z,5.18
2023-02-28T18:49:20.743Z,5.19
2023-02-28T18:51:47.482Z,5.20
2023-02-28T18:54:15.807Z,5.19
2023-02-28T18:56:42.384Z,5.17
2023-02-28T18:59:09.043Z,5.17
2023-02-28T19:01:36.406Z,5.15
2023-02-28T19:04:03.762Z,5.13
2023-02-28T19:06:32.875Z,5.15
2023-02-28T19:09:01.837Z,5.13
2023-02-28T19:11:28.739Z,5.05
2023-02-28T19:13:56.500Z,4.94
2023-02-28T19:16:23.106Z,4.92
2023-02-28T19:18:50.248Z,4.90
2023-02-28T19:21:19.276Z,4.91
2023-02-28T19:23:45.932Z,4.93
2023-02-28T19:26:15.748Z,4.91
2023-02-28T19:28:42.388Z,4.88
2023-02-28T19:31:14.274Z,4.87
2023-02-28T19:33:41.640Z,4.84
2023-02-28T19:36:12.058Z,4.85
2023-02-28T19:38:40.066Z,4.87
2023-02-28T19:41:11.712Z,4.87
2023-02-28T19:43:38.815Z,4.82
2023-02-28T19:46:07.270Z,4.83
2023-02-28T19:48:33.837Z,4.82
2023-02-28T19:51:09.428Z,4.79
2023-02-28T19:53:37.438Z,4.77
2023-02-28T19:56:04.727Z,4.78
2023-02-28T19:58:32.037Z,4.72
2023-02-28T20:01:01.259Z,4.72
2023-02-28T20:03:27.881Z,4.77
2023-02-28T20:06:03.802Z,4.79
2023-02-28T20:08:31.019Z,4.82
2023-02-28T20:11:12.434Z,4.84
2023-02-28T20:13:39.159Z,4.80
2023-02-28T20:16:09.625Z,4.75
2023-02-28T20:18:37.904Z,4.72
2023-02-28T20:21:05.084Z,4.71
2023-02-28T20:23:31.771Z,4.70
2023-02-28T20:26:02.494Z,4.69
2023-02-28T20:28:29.128Z,4.70
2023-02-28T20:30:55.908Z,4.73
2023-02-28T20:33:22.721Z,4.73
2023-02-28T20:35:52.636Z,4.73
2023-02-28T20:38:20.303Z,4.74
2023-02-28T20:40:46.865Z,4.75
2023-02-28T20:43:13.569Z,4.77
2023-02-28T20:45:40.305Z,4.77
2023-02-28T20:48:06.856Z,4.77
2023-02-28T20:50:33.382Z,4.72
2023-02-28T20:52:59.981Z,4.66
2023-02-28T20:55:26.536Z,4.65
2023-02-28T20:57:54.181Z,4.66
2023-02-28T21:00:22.415Z,4.66
2023-02-28T21:02:49.056Z,4.63
2023-02-28T21:05:15.745Z,4.62
2023-02-28T21:07:42.294Z,4.62
2023-02-28T21:10:09.999Z,4.63
2023-02-28T21:12:36.576Z,4.62
2023-02-28T21:15:03.759Z,4.63
2023-02-28T21:17:30.421Z,4.66
2023-02-28T21:19:57.077Z,4.64
2023-02-28T21:22:23.603Z,4.63
2023-02-28T21:24:50.148Z,4.61
2023-02-28T21:27:16.759Z,4.56
2023-02-28T21:29:43.337Z,4.59
2023-02-28T21:32:10.062Z,4.59
2023-02-28T21:34:36.720Z,4.58
2023-02-28T21:37:03.859Z,4.59
2023-02-28T21:39:30.751Z,4.61
2023-02-28T21:42:03.504Z,4.59
2023-02-28T21:44:31.331Z,4.59
2023-02-28T21:47:01.054Z,4.60
2023-02-28T21:49:28.516Z,4.61
2023-02-28T21:51:55.154Z,4.61
2023-02-28T21:54:21.746Z,4.56
2023-02-28T21:56:50.766Z,4.56
2023-02-28T21:59:18.106Z,4.53
2023-02-28T22:01:45.519Z,4.53
2023-02-28T22:04:21.137Z,4.52
2023-02-28T22:06:53.320Z,4.52
2023-02-28T22:09:20.630Z,4.51
2023-02-28T22:11:47.599Z,4.52
2023-02-28T22:14:14.158Z,4.55
2023-02-28T22:16:51.245Z,4.53
2023-02-28T22:19:19.904Z,4.56
2023-02-28T22:21:47.438Z,4.58
2023-02-28T22:24:15.528Z,4.59
2023-02-28T22:26:42.131Z,4.59
2023-02-28T22:29:08.732Z,4.57
2023-02-28T22:31:36.839Z,4.53
2023-02-28T22:34:09.528Z,4.49
2023-02-28T22:36:36.855Z,4.49
2023-02-28T22:39:05.308Z,4.50
2023-02-28T22:41:32.503Z,4.52
2023-02-28T22:44:01.713Z,4.53
2023-02-28T22:46:31.143Z,4.54
2023-02-28T22:49:01.650Z,4.56
2023-02-28T22:51:29.050Z,4.59
2023-02-28T22:53:56.922Z,4.58
2023-02-28T22:56:26.692Z,4.57
2023-02-28T22:58:55.539Z,4.57
2023-02-28T23:01:23.997Z,4.57
2023-02-28T23:03:51.377Z,4.60
2023-02-28T23:06:22.923Z,4.54
2023-02-28T23:08:50.862Z,4.51
2023-02-28T23:11:23.695Z,4.48
2023-02-28T23:13:59.800Z,4.44
2023-02-28T23:16:37.208Z,4.46
2023-02-28T23:19:06.897Z,4.48
2023-02-28T23:21:34.568Z,4.51
2023-02-28T23:24:03.198Z,4.51
2023-02-28T23:26:31.850Z,4.53
2023-02-28T23:28:59.535Z,4.54
2023-02-28T23:31:26.299Z,4.55
2023-02-28T23:33:52.926Z,4.52
2023-02-28T23:36:19.721Z,4.51
2023-02-28T23:38:49.283Z,4.49
2023-02-28T23:41:17.260Z,4.50
2023-02-28T23:43:44.196Z,4.50
2023-02-28T23:46:12.015Z,4.51
2023-02-28T23:48:39.204Z,4.51
2023-02-28T23:51:12.021Z,4.52
2023-02-28T23:53:41.132Z,4.51
2023-02-28T23:56:09.775Z,4.54
2023-02-28T23:58:36.842Z,4.52
